createdAt,value
2018-10-11T00:01:58.443Z,19.29
2018-10-11T00:04:26.748Z,19.55
2018-10-11T00:06:55.036Z,19.44
2018-10-11T00:09:23.354Z,19.52
2018-10-11T00:11:51.675Z,19.47
2018-10-11T00:14:19.936Z,19.46
2018-10-11T00:16:48.263Z,19.37
2018-10-11T00:19:16.683Z,19.38
2018-10-11T00:21:44.992Z,19.20
2018-10-11T00:24:13.319Z,19.23
2018-10-11T00:26:41.780Z,19.12
2018-10-11T00:29:10.199Z,19.18
2018-10-11T00:31:38.488Z,19.23
2018-10-11T00:34:06.837Z,19.30
2018-10-11T00:36:35.124Z,19.35
2018-10-11T00:39:05.354Z,19.25
2018-10-11T00:41:33.649Z,19.28
2018-10-11T00:44:02.024Z,19.14
2018-10-11T00:46:30.435Z,19.04
2018-10-11T00:48:58.750Z,18.94
2018-10-11T00:51:27.090Z,19.01
2018-10-11T00:53:55.434Z,18.93
2018-10-11T00:56:23.748Z,18.87
2018-10-11T00:58:52.049Z,19.00
2018-10-11T01:01:20.566Z,18.79
2018-10-11T01:03:48.856Z,18.88
2018-10-11T01:06:17.328Z,18.75
2018-10-11T01:08:45.672Z,18.82
2018-10-11T01:11:14.141Z,18.60
2018-10-11T01:13:42.580Z,18.65
2018-10-11T01:16:10.921Z,18.47
2018-10-11T01:18:39.246Z,18.65
2018-10-11T01:21:07.669Z,18.46
2018-10-11T01:23:36.245Z,18.49
2018-10-11T01:26:04.532Z,18.26
2018-10-11T01:28:33.085Z,18.50
2018-10-11T01:31:06.639Z,18.45
2018-10-11T01:33:34.914Z,18.45
2018-10-11T01:36:03.366Z,18.16
2018-10-11T01:38:31.631Z,18.13
2018-10-11T01:40:59.954Z,18.52
2018-10-11T01:43:28.353Z,18.45
2018-10-11T01:45:56.605Z,18.49
2018-10-11T01:48:25.613Z,18.31
2018-10-11T01:50:53.890Z,18.58
2018-10-11T01:53:22.235Z,18.18
2018-10-11T01:55:50.556Z,18.36
2018-10-11T01:58:18.841Z,18.34
2018-10-11T02:00:47.130Z,18.60
2018-10-11T02:03:15.519Z,18.40
2018-10-11T02:05:43.833Z,18.71
2018-10-11T02:08:12.224Z,18.63
2018-10-11T02:10:40.554Z,18.82
2018-10-11T02:13:08.822Z,18.79
2018-10-11T02:15:37.111Z,18.57
2018-10-11T02:18:05.557Z,18.21
2018-10-11T02:20:33.836Z,18.36
2018-10-11T02:23:02.211Z,18.67
2018-10-11T02:25:30.544Z,18.77
2018-10-11T02:27:58.947Z,18.77
2018-10-11T02:30:27.474Z,18.62
2018-10-11T02:32:55.845Z,18.42
2018-10-11T02:35:24.209Z,18.40
2018-10-11T02:37:52.528Z,18.73
2018-10-11T02:40:20.878Z,18.79
2018-10-11T02:42:49.189Z,18.59
2018-10-11T02:45:17.443Z,18.62
2018-10-11T02:47:45.760Z,18.72
2018-10-11T02:50:14.286Z,18.69
2018-10-11T02:52:42.580Z,18.60
2018-10-11T02:55:17.293Z,18.19
2018-10-11T02:57:56.793Z,18.49
2018-10-11T03:00:25.088Z,18.67
2018-10-11T03:02:53.502Z,18.77
2018-10-11T03:05:21.828Z,18.45
2018-10-11T03:07:50.362Z,18.59
2018-10-11T03:10:18.620Z,18.53
2018-10-11T03:12:46.917Z,18.56
2018-10-11T03:15:15.324Z,18.49
2018-10-11T03:17:43.625Z,18.43
2018-10-11T03:20:11.946Z,18.51
2018-10-11T03:22:40.280Z,18.64
2018-10-11T03:25:08.736Z,18.61
2018-10-11T03:27:37.160Z,18.57
2018-10-11T03:30:05.541Z,18.63
2018-10-11T03:32:33.855Z,18.71
2018-10-11T03:35:02.132Z,18.45
2018-10-11T03:37:30.615Z,18.54
2018-10-11T03:39:58.862Z,18.42
2018-10-11T03:42:27.227Z,18.43
2018-10-11T03:44:55.527Z,18.53
2018-10-11T03:47:23.922Z,18.58
2018-10-11T03:49:52.234Z,18.47
2018-10-11T03:52:20.542Z,18.52
2018-10-11T03:54:48.912Z,18.37
2018-10-11T03:57:17.220Z,18.45
2018-10-11T03:59:45.481Z,18.39
2018-10-11T04:02:13.953Z,18.16
2018-10-11T04:04:42.506Z,18.26
2018-10-11T04:07:10.810Z,17.81
2018-10-11T04:09:39.081Z,18.33
2018-10-11T04:12:07.502Z,18.37
2018-10-11T04:14:35.792Z,18.31
2018-10-11T04:17:04.071Z,18.26
2018-10-11T04:19:32.628Z,18.37
2018-10-11T04:22:00.993Z,18.49
2018-10-11T04:24:29.336Z,18.43
2018-10-11T04:26:57.641Z,18.43
2018-10-11T04:29:26.300Z,18.34
2018-10-11T04:31:54.786Z,18.20
2018-10-11T04:34:23.112Z,18.18
2018-10-11T04:36:51.584Z,18.12
2018-10-11T04:39:19.921Z,18.14
2018-10-11T04:41:48.344Z,18.01
2018-10-11T04:44:16.632Z,18.06
2018-10-11T04:46:45.400Z,18.07
2018-10-11T04:49:13.809Z,17.91
2018-10-11T04:51:42.979Z,17.89
2018-10-11T04:54:11.298Z,17.85
2018-10-11T04:56:39.774Z,17.80
2018-10-11T04:59:08.280Z,17.42
2018-10-11T05:01:36.620Z,17.67
2018-10-11T05:04:04.912Z,17.77
2018-10-11T05:06:33.199Z,17.52
2018-10-11T05:09:01.585Z,17.68
2018-10-11T05:11:29.922Z,17.84
2018-10-11T05:14:00.027Z,17.72
2018-10-11T05:16:28.517Z,17.68
2018-10-11T05:18:59.746Z,17.32
2018-10-11T05:21:28.243Z,17.56
2018-10-11T05:23:56.790Z,17.62
2018-10-11T05:26:25.229Z,17.44
2018-10-11T05:28:53.700Z,17.67
2018-10-11T05:31:22.224Z,17.54
2018-10-11T05:33:51.318Z,17.66
2018-10-11T05:36:19.622Z,17.49
2018-10-11T05:38:48.034Z,17.84
2018-10-11T05:41:16.372Z,17.89
2018-10-11T05:43:44.760Z,17.79
2018-10-11T05:46:19.587Z,17.76
2018-10-11T05:48:47.874Z,17.80
2018-10-11T05:51:16.234Z,17.74
2018-10-11T05:53:44.671Z,18.15
2018-10-11T05:56:17.397Z,18.06
2018-10-11T05:58:47.056Z,18.22
2018-10-11T06:01:15.461Z,17.99
2018-10-11T06:03:44.664Z,17.83
2018-10-11T06:06:13.155Z,17.72
2018-10-11T06:08:41.502Z,17.77
2018-10-11T06:11:09.903Z,17.79
2018-10-11T06:13:38.258Z,17.61
2018-10-11T06:16:06.731Z,17.84
2018-10-11T06:18:35.071Z,17.26
2018-10-11T06:21:03.318Z,17.63
2018-10-11T06:23:31.609Z,17.45
2018-10-11T06:25:59.944Z,17.85
2018-10-11T06:28:28.227Z,18.05
2018-10-11T06:30:56.695Z,18.27
2018-10-11T06:33:24.968Z,18.25
2018-10-11T06:35:53.301Z,18.53
2018-10-11T06:38:21.856Z,18.59
2018-10-11T06:40:50.180Z,18.75
2018-10-11T06:43:18.471Z,18.88
2018-10-11T06:45:46.851Z,18.97
2018-10-11T06:48:15.198Z,18.83
2018-10-11T06:50:43.971Z,18.61
2018-10-11T06:53:12.402Z,18.16
2018-10-11T06:55:40.718Z,17.66
2018-10-11T06:58:09.000Z,17.65
2018-10-11T07:00:37.391Z,18.06
2018-10-11T07:03:05.929Z,18.49
2018-10-11T07:05:34.159Z,18.66
2018-10-11T07:08:02.465Z,18.95
2018-10-11T07:10:30.806Z,19.41
2018-10-11T07:12:59.124Z,19.67
2018-10-11T07:15:27.673Z,19.76
2018-10-11T07:17:56.133Z,19.53
2018-10-11T07:20:24.554Z,19.87
2018-10-11T07:22:52.915Z,19.79
2018-10-11T07:25:21.168Z,19.97
2018-10-11T07:27:49.475Z,19.85
2018-10-11T07:30:17.831Z,19.84
2018-10-11T07:32:46.166Z,20.18
2018-10-11T07:35:14.485Z,20.35
2018-10-11T07:37:42.887Z,19.89
2018-10-11T07:40:11.138Z,20.42
2018-10-11T07:42:39.402Z,20.70
2018-10-11T07:45:07.720Z,20.19
2018-10-11T07:47:36.152Z,20.53
2018-10-11T07:50:04.896Z,20.84
2018-10-11T07:52:33.224Z,21.11
2018-10-11T07:55:01.553Z,20.58
2018-10-11T07:57:29.920Z,21.04
2018-10-11T07:59:58.215Z,21.33
2018-10-11T08:02:26.496Z,21.58
2018-10-11T08:04:54.779Z,21.36
2018-10-11T08:07:23.243Z,21.68
2018-10-11T08:09:51.536Z,21.71
2018-10-11T08:12:19.804Z,21.39
2018-10-11T08:14:48.147Z,21.47
2018-10-11T08:17:16.912Z,21.53
2018-10-11T08:19:44.989Z,22.10
2018-10-11T08:22:13.207Z,22.05
2018-10-11T08:24:41.623Z,21.76
2018-10-11T08:27:09.999Z,21.95
2018-10-11T08:29:38.224Z,22.54
2018-10-11T08:32:06.575Z,22.80
2018-10-11T08:34:34.912Z,22.93
2018-10-11T08:37:03.236Z,22.62
2018-10-11T08:39:31.578Z,23.15
2018-10-11T08:41:59.997Z,23.09
2018-10-11T08:44:28.286Z,23.49
2018-10-11T08:46:56.660Z,22.90
2018-10-11T08:49:24.983Z,22.43
2018-10-11T08:51:53.324Z,23.39
2018-10-11T08:54:26.693Z,24.06
2018-10-11T08:56:55.004Z,24.17
2018-10-11T08:59:23.490Z,23.82
2018-10-11T09:01:51.690Z,23.62
2018-10-11T09:04:19.988Z,23.30
2018-10-11T09:06:48.293Z,23.55
2018-10-11T09:09:16.579Z,23.67
2018-10-11T09:11:44.952Z,23.73
2018-10-11T09:14:13.258Z,24.37
2018-10-11T09:16:41.647Z,24.27
2018-10-11T09:19:09.931Z,24.34
2018-10-11T09:21:38.336Z,24.74
2018-10-11T09:24:06.785Z,24.80
2018-10-11T09:26:35.088Z,24.48
2018-10-11T09:29:03.360Z,24.56
2018-10-11T09:31:31.704Z,24.35
2018-10-11T09:34:00.076Z,24.65
2018-10-11T09:36:28.430Z,25.06
2018-10-11T09:38:56.670Z,25.58
2018-10-11T09:41:25.043Z,25.24
2018-10-11T09:43:53.448Z,25.70
2018-10-11T09:46:22.035Z,25.16
2018-10-11T09:48:50.487Z,25.42
2018-10-11T09:51:18.680Z,25.26
2018-10-11T09:53:46.974Z,25.19
2018-10-11T09:56:15.360Z,25.51
2018-10-11T09:58:43.691Z,24.94
2018-10-11T10:01:17.184Z,25.84
2018-10-11T10:03:45.690Z,24.96
2018-10-11T10:06:14.008Z,25.91
2018-10-11T10:08:42.440Z,24.78
2018-10-11T10:11:10.701Z,24.95
2018-10-11T10:13:39.105Z,25.59
2018-10-11T10:16:07.456Z,25.34
2018-10-11T10:18:35.733Z,25.28
2018-10-11T10:21:04.231Z,25.77
2018-10-11T10:23:32.510Z,26.66
2018-10-11T10:26:00.872Z,27.19
2018-10-11T10:28:29.173Z,27.01
2018-10-11T10:30:57.716Z,27.02
2018-10-11T10:33:26.298Z,27.45
2018-10-11T10:35:54.656Z,27.33
2018-10-11T10:38:23.613Z,26.58
2018-10-11T10:40:52.351Z,25.82
2018-10-11T10:43:20.869Z,26.81
2018-10-11T10:45:49.390Z,27.57
2018-10-11T10:48:17.743Z,27.31
2018-10-11T10:50:46.094Z,26.69
2018-10-11T10:53:14.862Z,27.46
2018-10-11T10:55:43.332Z,27.86
2018-10-11T10:58:11.695Z,28.50
2018-10-11T11:00:40.074Z,28.44
2018-10-11T11:03:08.367Z,28.67
2018-10-11T11:05:36.667Z,28.18
2018-10-11T11:08:05.039Z,27.99
2018-10-11T11:10:33.366Z,28.46
2018-10-11T11:13:01.660Z,28.27
2018-10-11T11:15:30.267Z,28.37
2018-10-11T11:17:58.756Z,28.15
2018-10-11T11:20:27.112Z,28.46
2018-10-11T11:22:55.663Z,29.06
2018-10-11T11:25:24.212Z,29.46
2018-10-11T11:27:52.487Z,28.87
2018-10-11T11:30:20.940Z,28.98
2018-10-11T11:32:49.247Z,30.06
2018-10-11T11:35:17.705Z,30.20
2018-10-11T11:37:46.053Z,30.97
2018-10-11T11:40:14.338Z,30.65
2018-10-11T11:42:42.739Z,31.34
2018-10-11T11:45:11.067Z,32.40
2018-10-11T11:47:39.528Z,33.04
2018-10-11T11:50:08.090Z,32.74
2018-10-11T11:52:36.464Z,32.83
2018-10-11T11:55:04.840Z,32.59
2018-10-11T11:57:33.136Z,32.81
2018-10-11T12:00:01.496Z,32.68
2018-10-11T12:02:29.837Z,34.13
2018-10-11T12:04:58.117Z,34.64
2018-10-11T12:07:26.420Z,36.36
2018-10-11T12:09:54.704Z,37.07
2018-10-11T12:13:01.775Z,37.91
2018-10-11T12:15:30.921Z,39.63
2018-10-11T12:18:00.485Z,40.92
2018-10-11T12:20:30.845Z,40.60
2018-10-11T12:23:00.150Z,39.40
2018-10-11T12:25:28.963Z,40.15
2018-10-11T12:27:57.249Z,38.70
2018-10-11T12:30:25.608Z,39.52
2018-10-11T12:32:53.962Z,40.65
2018-10-11T12:35:23.266Z,40.89
2018-10-11T12:37:51.635Z,41.11
2018-10-11T12:40:20.098Z,40.32
2018-10-11T12:42:48.388Z,39.33
2018-10-11T12:45:17.314Z,41.94
2018-10-11T12:47:45.768Z,42.24
2018-10-11T12:50:14.314Z,42.86
2018-10-11T12:52:42.858Z,43.15
2018-10-11T12:55:11.361Z,42.90
2018-10-11T12:57:39.925Z,42.16
2018-10-11T13:00:09.868Z,41.09
2018-10-11T13:02:38.198Z,39.83
2018-10-11T13:05:06.616Z,38.35
2018-10-11T13:07:35.059Z,37.65
2018-10-11T13:10:03.774Z,36.73
2018-10-11T13:12:32.143Z,36.30
2018-10-11T13:15:00.476Z,37.08
2018-10-11T13:17:31.657Z,35.61
2018-10-11T13:19:57.363Z,36.62
2018-10-11T13:22:25.814Z,37.73
2018-10-11T13:24:54.176Z,37.84
2018-10-11T13:27:22.486Z,39.28
2018-10-11T13:29:51.015Z,39.79
2018-10-11T13:32:19.301Z,39.53
2018-10-11T13:34:47.775Z,38.95
2018-10-11T13:37:16.517Z,39.06
2018-10-11T13:39:52.023Z,37.46
2018-10-11T13:42:13.493Z,36.96
2018-10-11T13:44:41.942Z,36.67
2018-10-11T13:47:10.386Z,35.90
2018-10-11T13:49:38.779Z,36.14
2018-10-11T13:52:07.232Z,35.68
2018-10-11T13:54:35.665Z,36.04
2018-10-11T13:57:04.028Z,36.68
2018-10-11T13:59:32.366Z,35.11
2018-10-11T14:02:00.709Z,35.73
2018-10-11T14:04:29.036Z,35.93
2018-10-11T14:06:57.294Z,35.67
2018-10-11T14:09:25.696Z,34.44
2018-10-11T14:11:53.990Z,34.22
2018-10-11T14:14:22.664Z,34.58
2018-10-11T14:16:50.939Z,34.14
2018-10-11T14:19:19.309Z,33.54
2018-10-11T14:21:47.752Z,33.11
2018-10-11T14:24:16.214Z,32.85
2018-10-11T14:26:44.452Z,32.71
2018-10-11T14:29:12.767Z,32.99
2018-10-11T14:31:41.167Z,33.35
2018-10-11T14:34:09.873Z,33.27
2018-10-11T14:36:38.199Z,33.12
2018-10-11T14:39:07.596Z,34.08
2018-10-11T14:41:36.080Z,34.62
2018-10-11T14:44:04.905Z,34.84
2018-10-11T14:46:33.180Z,34.82
2018-10-11T14:49:01.483Z,35.01
2018-10-11T14:51:29.989Z,35.02
2018-10-11T14:53:59.565Z,34.39
2018-10-11T14:56:26.688Z,34.02
2018-10-11T14:58:54.962Z,33.79
2018-10-11T15:01:23.263Z,33.61
2018-10-11T15:03:52.614Z,33.08
2018-10-11T15:06:20.950Z,32.75
2018-10-11T15:08:49.282Z,32.36
2018-10-11T15:11:17.718Z,32.31
2018-10-11T15:13:45.943Z,31.92
2018-10-11T15:16:14.408Z,31.74
2018-10-11T15:18:42.691Z,31.42
2018-10-11T15:21:10.973Z,31.43
2018-10-11T15:23:39.328Z,30.98
2018-10-11T15:26:07.644Z,30.56
2018-10-11T15:28:36.281Z,30.43
2018-10-11T15:31:04.544Z,30.20
2018-10-11T15:33:32.942Z,30.16
2018-10-11T15:36:01.424Z,29.91
2018-10-11T15:38:29.860Z,29.95
2018-10-11T15:40:58.116Z,29.54
2018-10-11T15:43:26.525Z,29.52
2018-10-11T15:45:54.890Z,29.42
2018-10-11T15:48:23.195Z,29.24
2018-10-11T15:50:51.481Z,29.10
2018-10-11T15:53:19.868Z,28.85
2018-10-11T15:55:48.196Z,28.81
2018-10-11T15:58:16.443Z,28.73
2018-10-11T16:00:44.739Z,28.59
2018-10-11T16:03:13.076Z,28.47
2018-10-11T16:05:41.632Z,28.29
2018-10-11T16:08:09.715Z,28.26
2018-10-11T16:10:38.028Z,28.23
2018-10-11T16:13:06.340Z,27.63
2018-10-11T16:15:34.777Z,27.86
2018-10-11T16:18:03.108Z,27.89
2018-10-11T16:20:31.438Z,27.86
2018-10-11T16:22:59.740Z,27.63
2018-10-11T16:25:28.207Z,27.65
2018-10-11T16:27:56.639Z,27.60
2018-10-11T16:30:25.049Z,27.38
2018-10-11T16:32:53.364Z,27.39
2018-10-11T16:35:21.719Z,27.38
2018-10-11T16:37:49.974Z,27.29
2018-10-11T16:40:18.248Z,27.32
2018-10-11T16:42:46.572Z,27.21
2018-10-11T16:45:14.964Z,27.13
2018-10-11T16:47:43.473Z,27.06
2018-10-11T16:50:11.858Z,26.82
2018-10-11T16:52:40.139Z,26.91
2018-10-11T16:55:08.440Z,26.61
2018-10-11T16:57:36.781Z,26.80
2018-10-11T17:00:05.476Z,26.80
2018-10-11T17:02:33.886Z,26.74
2018-10-11T17:05:02.257Z,26.85
2018-10-11T17:07:30.698Z,26.81
2018-10-11T17:09:59.097Z,26.79
2018-10-11T17:12:27.358Z,26.76
2018-10-11T17:14:55.834Z,26.71
2018-10-11T17:17:24.144Z,26.71
2018-10-11T17:19:52.846Z,26.54
2018-10-11T17:23:23.882Z,26.46
2018-10-11T17:25:52.264Z,26.35
2018-10-11T17:28:21.003Z,26.41
2018-10-11T17:30:49.285Z,26.35
2018-10-11T17:33:17.643Z,26.29
2018-10-11T17:35:46.070Z,26.49
2018-10-11T17:38:14.480Z,26.39
2018-10-11T17:40:42.811Z,26.44
2018-10-11T17:43:11.133Z,26.45
2018-10-11T17:45:39.545Z,26.13
2018-10-11T17:48:07.978Z,26.28
2018-10-11T17:50:36.440Z,26.38
2018-10-11T17:53:05.362Z,26.43
2018-10-11T17:55:34.289Z,26.34
2018-10-11T17:59:31.925Z,26.32
2018-10-11T18:02:00.281Z,26.24
2018-10-11T18:04:28.680Z,26.13
2018-10-11T18:06:56.988Z,25.82
2018-10-11T18:09:25.584Z,26.01
2018-10-11T18:11:53.864Z,26.09
2018-10-11T18:14:22.935Z,26.16
2018-10-11T18:16:51.267Z,26.11
2018-10-11T18:19:19.505Z,25.72
2018-10-11T18:21:47.930Z,25.87
2018-10-11T18:24:16.168Z,25.80
2018-10-11T18:26:44.648Z,25.86
2018-10-11T18:29:13.152Z,25.81
2018-10-11T18:31:41.487Z,25.76
2018-10-11T18:34:09.805Z,25.73
2018-10-11T18:36:38.072Z,25.65
2018-10-11T18:39:11.017Z,25.85
2018-10-11T18:41:39.629Z,25.73
2018-10-11T18:44:08.282Z,25.70
2018-10-11T18:46:36.523Z,25.59
2018-10-11T18:49:04.920Z,25.26
2018-10-11T18:51:33.226Z,24.99
2018-10-11T18:54:01.512Z,25.31
2018-10-11T18:56:29.904Z,25.42
2018-10-11T18:58:58.180Z,25.45
2018-10-11T19:01:26.534Z,25.44
2018-10-11T19:03:55.072Z,25.15
2018-10-11T19:06:23.490Z,24.70
2018-10-11T19:08:51.808Z,24.53
2018-10-11T19:11:20.267Z,24.67
2018-10-11T19:13:48.766Z,24.93
2018-10-11T19:16:17.008Z,25.02
2018-10-11T19:18:45.355Z,24.39
2018-10-11T19:21:13.864Z,24.00
2018-10-11T19:23:42.124Z,24.23
2018-10-11T19:26:10.428Z,24.20
2018-10-11T19:28:38.755Z,24.11
2018-10-11T19:31:07.059Z,24.29
2018-10-11T19:33:35.445Z,24.00
2018-10-11T19:36:03.882Z,24.03
2018-10-11T19:38:32.248Z,24.15
2018-10-11T19:41:00.693Z,24.03
2018-10-11T19:43:28.941Z,24.10
2018-10-11T19:45:57.240Z,24.05
2018-10-11T19:48:25.547Z,23.93
2018-10-11T19:50:53.832Z,24.18
2018-10-11T19:53:22.223Z,24.52
2018-10-11T19:55:50.692Z,24.53
2018-10-11T19:58:19.051Z,24.48
2018-10-11T20:00:47.483Z,24.28
2018-10-11T20:03:15.985Z,24.24
2018-10-11T20:05:44.297Z,24.23
2018-10-11T20:08:12.805Z,24.21
2018-10-11T20:10:41.410Z,24.10
2018-10-11T20:13:09.716Z,24.13
2018-10-11T20:15:38.470Z,24.08
2018-10-11T20:18:06.869Z,23.97
2018-10-11T20:20:35.416Z,24.08
2018-10-11T20:23:03.795Z,24.01
2018-10-11T20:25:32.164Z,23.99
2018-10-11T20:28:00.453Z,23.77
2018-10-11T20:30:28.782Z,23.87
2018-10-11T20:32:57.226Z,23.84
2018-10-11T20:35:25.508Z,23.84
2018-10-11T20:37:54.034Z,23.73
2018-10-11T20:40:22.596Z,23.60
2018-10-11T20:42:51.150Z,23.26
2018-10-11T20:45:19.568Z,23.38
2018-10-11T20:47:47.919Z,23.43
2018-10-11T20:50:16.216Z,23.55
2018-10-11T20:52:45.557Z,23.38
2018-10-11T20:55:14.037Z,23.24
2018-10-11T20:57:42.445Z,23.28
2018-10-11T21:00:11.118Z,23.46
2018-10-11T21:02:39.611Z,23.51
2018-10-11T21:05:08.129Z,23.47
2018-10-11T21:07:36.652Z,23.58
2018-10-11T21:10:05.371Z,23.42
2018-10-11T21:12:33.660Z,23.36
2018-10-11T21:15:01.973Z,23.53
2018-10-11T21:17:30.271Z,23.58
2018-10-11T21:20:03.513Z,23.60
2018-10-11T21:22:31.772Z,23.31
2018-10-11T21:25:00.061Z,23.34
2018-10-11T21:27:28.423Z,23.54
2018-10-11T21:29:57.036Z,23.36
2018-10-11T21:32:25.432Z,23.57
2018-10-11T21:34:53.805Z,23.53
2018-10-11T21:37:22.266Z,23.36
2018-10-11T21:39:50.588Z,23.06
2018-10-11T21:42:19.728Z,23.06
2018-10-11T21:44:48.146Z,23.26
2018-10-11T21:47:16.484Z,23.03
2018-10-11T21:51:09.255Z,22.95
2018-10-11T21:53:37.633Z,22.92
2018-10-11T21:56:05.886Z,22.80
2018-10-11T21:58:34.200Z,22.54
2018-10-11T22:01:07.678Z,22.49
2018-10-11T22:03:35.998Z,22.66
2018-10-11T22:06:04.369Z,22.68
2018-10-11T22:08:32.777Z,22.66
2018-10-11T22:11:01.010Z,22.84
2018-10-11T22:13:29.430Z,23.05
2018-10-11T22:15:57.696Z,22.99
2018-10-11T22:18:26.014Z,23.00
2018-10-11T22:20:54.410Z,22.98
2018-10-11T22:23:22.962Z,23.00
2018-10-11T22:25:51.246Z,23.05
2018-10-11T22:28:19.645Z,22.61
2018-10-11T22:30:47.995Z,22.68
2018-10-11T22:33:16.335Z,22.86
2018-10-11T22:35:44.735Z,22.91
2018-10-11T22:38:13.096Z,22.75
2018-10-11T22:40:41.692Z,23.00
2018-10-11T22:43:10.134Z,22.88
2018-10-11T22:45:38.459Z,22.66
2018-10-11T22:48:06.815Z,22.72
2018-10-11T22:50:35.120Z,22.30
2018-10-11T22:53:03.507Z,22.42
2018-10-11T22:55:32.664Z,22.26
2018-10-11T22:58:01.513Z,22.78
2018-10-11T23:00:30.031Z,22.58
2018-10-11T23:02:58.304Z,22.62
2018-10-11T23:05:26.914Z,22.56
2018-10-11T23:07:55.290Z,22.67
2018-10-11T23:10:23.696Z,22.77
2018-10-11T23:12:52.039Z,22.98
2018-10-11T23:15:20.369Z,22.90
2018-10-11T23:17:48.770Z,22.89
2018-10-11T23:20:17.172Z,22.81
2018-10-11T23:22:45.497Z,22.88
2018-10-11T23:25:13.776Z,22.93
2018-10-11T23:27:42.301Z,21.95
2018-10-11T23:30:11.834Z,22.57
2018-10-11T23:32:40.999Z,22.42
2018-10-11T23:35:09.982Z,22.46
2018-10-11T23:37:38.411Z,22.49
2018-10-11T23:40:06.838Z,22.42
2018-10-11T23:42:35.220Z,22.28
2018-10-11T23:45:03.524Z,22.29
2018-10-11T23:47:31.848Z,22.41
2018-10-11T23:50:00.285Z,22.25
2018-10-11T23:52:28.752Z,22.13
2018-10-11T23:54:57.097Z,22.00
2018-10-11T23:57:25.422Z,21.85
2018-10-11T23:59:53.739Z,21.98
